Archival Weather

Chicago O'Hare International

Chicago, Illinois (KORD)

Report from: Wednesday, December 21, 2022 12:51 AM CST
Current time: Friday, June 21, 2024 3:21 AM CDT

Current weather – Weather history – Daily summaries
Weather forecast

Temperature-8.9°C (16.0°F)
Wind chill-14.8°C (5.3°F)
Dew point-12.8°C (9.0°F)
Winds 7 kts (3.6 m/s, 8.1 mph) North-Northwest (340°)
Visibility10 mi. (16.1 km)
Clouds Few clouds 2,000 ft. (610 m)
Altimeter30.48 in.Hg (1032 mB)
Relative humidity73 %
Density altitude-3,619 ft. (-1,103 m)
Sea-level pressure103.3 kPa (1033 mB, 30.51 in.Hg)
Remarks Automated weather observing station with precipitation discriminator
Flight conditions Visual Meteorological Conditions
Raw dataKORD 210651Z 34007KT 10SM FEW020 M09/M13 A3048 RMK AO2 SLP331 T10891128
An error has occurred. This application may no longer respond until reloaded. Reload 🗙